createdAt,value
2023-01-27T00:02:23.017Z,26.20
2023-01-27T00:04:49.963Z,27.33
2023-01-27T00:07:17.033Z,26.65
2023-01-27T00:09:44.008Z,25.08
2023-01-27T00:12:54.363Z,26.83
2023-01-27T00:15:55.428Z,23.25
2023-01-27T00:18:35.918Z,21.85
2023-01-27T00:21:21.365Z,27.60
2023-01-27T00:24:06.959Z,31.00
2023-01-27T00:26:33.958Z,28.70
2023-01-27T00:29:00.852Z,28.95
2023-01-27T00:31:46.548Z,24.35
2023-01-27T00:34:13.644Z,27.50
2023-01-27T00:36:42.484Z,28.13
2023-01-27T00:39:12.215Z,28.65
2023-01-27T00:41:40.579Z,27.13
2023-01-27T00:44:12.862Z,26.52
2023-01-27T00:46:41.765Z,25.60
2023-01-27T00:49:10.621Z,26.55
2023-01-27T00:51:57.394Z,24.98
2023-01-27T00:54:58.397Z,28.20
2023-01-27T00:57:39.148Z,27.08
2023-01-27T01:00:26.433Z,28.00
2023-01-27T01:03:06.971Z,27.70
2023-01-27T01:05:33.950Z,27.00
2023-01-27T01:08:00.824Z,25.42
2023-01-27T01:10:29.410Z,25.25
2023-01-27T01:13:18.399Z,24.67
2023-01-27T01:16:15.769Z,23.95
2023-01-27T01:18:43.537Z,26.20
2023-01-27T01:21:11.184Z,26.05
2023-01-27T01:23:40.079Z,24.52
2023-01-27T01:26:07.532Z,25.58
2023-01-27T01:28:34.514Z,25.05
2023-01-27T01:31:10.217Z,23.60
2023-01-27T01:33:37.645Z,23.92
2023-01-27T01:36:07.167Z,24.02
2023-01-27T01:38:36.413Z,27.35
2023-01-27T01:41:04.549Z,23.75
2023-01-27T01:43:31.668Z,23.23
2023-01-27T01:46:18.445Z,22.30
2023-01-27T01:49:03.668Z,25.27
2023-01-27T01:52:13.419Z,26.17
2023-01-27T01:55:14.604Z,22.15
2023-01-27T01:58:16.510Z,25.42
2023-01-27T02:00:56.993Z,23.60
2023-01-27T02:03:28.541Z,20.88
2023-01-27T02:06:16.422Z,25.08
2023-01-27T02:08:57.308Z,21.40
2023-01-27T02:11:44.509Z,19.60
2023-01-27T02:14:37.105Z,21.10
2023-01-27T02:17:05.951Z,20.45
2023-01-27T02:19:37.416Z,18.20
2023-01-27T02:22:09.123Z,19.85
2023-01-27T02:24:41.862Z,18.27
2023-01-27T02:27:08.750Z,14.57
2023-01-27T02:29:35.579Z,14.35
2023-01-27T02:32:22.426Z,15.93
2023-01-27T02:35:04.594Z,14.18
2023-01-27T02:37:32.894Z,16.25
2023-01-27T02:40:06.758Z,23.63
2023-01-27T02:42:33.794Z,20.13
2023-01-27T02:45:00.778Z,23.27
2023-01-27T02:47:27.868Z,20.42
2023-01-27T02:50:14.433Z,15.80
2023-01-27T02:52:57.611Z,17.85
2023-01-27T02:55:24.713Z,17.48
2023-01-27T02:57:52.032Z,15.85
2023-01-27T03:00:33.843Z,16.70
2023-01-27T03:03:00.815Z,17.38
2023-01-27T03:05:27.850Z,18.48
2023-01-27T03:07:54.942Z,19.02
2023-01-27T03:10:21.887Z,17.92
2023-01-27T03:13:08.434Z,19.17
2023-01-27T03:16:31.497Z,16.08
2023-01-27T03:19:33.439Z,16.95
2023-01-27T03:22:14.022Z,18.73
2023-01-27T03:24:40.943Z,18.88
2023-01-27T03:27:08.028Z,19.65
2023-01-27T03:29:55.195Z,18.20
2023-01-27T03:32:24.521Z,19.08
2023-01-27T03:35:09.513Z,21.73
2023-01-27T03:37:55.431Z,16.90
2023-01-27T03:40:41.004Z,17.08
2023-01-27T03:43:27.366Z,19.38
2023-01-27T03:46:13.035Z,18.63
2023-01-27T03:48:39.986Z,23.63
2023-01-27T03:51:27.489Z,18.02
2023-01-27T03:54:09.815Z,21.60
2023-01-27T03:56:37.516Z,18.83
2023-01-27T03:59:05.028Z,19.42
2023-01-27T04:02:20.490Z,19.48
2023-01-27T04:05:39.469Z,21.88
2023-01-27T04:08:19.976Z,18.77
2023-01-27T04:11:06.801Z,18.50
2023-01-27T04:13:53.485Z,19.38
2023-01-27T04:16:36.764Z,18.27
2023-01-27T04:19:05.818Z,21.13
2023-01-27T04:21:33.953Z,20.63
2023-01-27T04:24:01.492Z,19.92
2023-01-27T04:26:34.617Z,19.75
2023-01-27T04:29:14.648Z,22.03
2023-01-27T04:31:42.600Z,19.00
2023-01-27T04:34:11.285Z,21.17
2023-01-27T04:36:39.160Z,18.55
2023-01-27T04:39:06.851Z,18.13
2023-01-27T04:41:33.737Z,19.10
2023-01-27T04:44:03.576Z,18.10
2023-01-27T04:46:34.002Z,19.40
2023-01-27T04:49:21.495Z,19.42
2023-01-27T04:52:22.510Z,17.77
2023-01-27T04:55:03.184Z,16.27
2023-01-27T04:57:30.427Z,17.85
2023-01-27T04:59:57.412Z,17.20
2023-01-27T05:02:26.490Z,17.95
2023-01-27T05:04:53.442Z,18.65
2023-01-27T05:07:20.328Z,19.65
2023-01-27T05:09:47.287Z,20.00
2023-01-27T05:12:34.499Z,19.60
2023-01-27T05:15:15.293Z,20.70
2023-01-27T05:17:42.347Z,19.85
2023-01-27T05:20:09.741Z,17.80
2023-01-27T05:22:36.855Z,20.52
2023-01-27T05:25:05.377Z,18.52
2023-01-27T05:27:32.498Z,17.88
2023-01-27T05:29:59.425Z,15.43
2023-01-27T05:32:26.452Z,16.95
2023-01-27T05:35:13.859Z,21.02
2023-01-27T05:37:54.258Z,18.25
2023-01-27T05:40:21.241Z,17.58
2023-01-27T05:42:48.249Z,19.05
2023-01-27T05:45:15.353Z,20.00
2023-01-27T05:47:42.532Z,18.02
2023-01-27T05:50:29.523Z,20.30
2023-01-27T05:53:30.562Z,19.00
2023-01-27T05:56:18.791Z,16.30
2023-01-27T05:58:46.143Z,18.92
2023-01-27T06:01:32.608Z,15.82
2023-01-27T06:04:13.466Z,16.25
2023-01-27T06:06:40.495Z,16.90
2023-01-27T06:09:07.657Z,15.80
2023-01-27T06:11:54.555Z,17.73
2023-01-27T06:14:55.522Z,16.33
2023-01-27T06:17:56.572Z,15.00
2023-01-27T06:20:43.566Z,16.00
2023-01-27T06:23:44.556Z,16.67
2023-01-27T06:26:25.124Z,17.08
2023-01-27T06:28:52.004Z,13.98
2023-01-27T06:31:22.071Z,17.23
2023-01-27T06:33:50.516Z,17.95
2023-01-27T06:36:37.540Z,19.45
2023-01-27T06:39:18.167Z,16.90
2023-01-27T06:41:45.094Z,16.05
2023-01-27T06:44:12.059Z,16.38
2023-01-27T06:46:38.997Z,19.70
2023-01-27T06:49:08.739Z,18.80
2023-01-27T06:51:55.615Z,17.63
2023-01-27T06:54:56.582Z,20.20
2023-01-27T06:57:37.119Z,17.70
2023-01-27T07:00:06.332Z,17.88
2023-01-27T07:02:33.421Z,18.27
2023-01-27T07:05:00.512Z,19.48
2023-01-27T07:07:47.554Z,19.77
2023-01-27T07:10:28.585Z,17.88
2023-01-27T07:13:24.657Z,18.05
2023-01-27T07:16:08.235Z,20.02
2023-01-27T07:18:58.659Z,18.55
2023-01-27T07:21:59.632Z,17.33
2023-01-27T07:25:02.638Z,17.20
2023-01-27T07:28:03.731Z,16.13
2023-01-27T07:30:35.523Z,17.58
2023-01-27T07:33:13.975Z,17.38
2023-01-27T07:36:02.547Z,16.30
2023-01-27T07:38:43.031Z,15.57
2023-01-27T07:41:09.810Z,15.10
2023-01-27T07:43:36.914Z,17.88
2023-01-27T07:46:10.742Z,17.48
2023-01-27T07:48:37.748Z,16.30
2023-01-27T07:51:28.589Z,17.98
2023-01-27T07:54:29.556Z,15.15
2023-01-27T07:57:10.119Z,13.90
2023-01-27T07:59:37.054Z,15.70
2023-01-27T08:02:04.309Z,15.55
2023-01-27T08:04:35.234Z,15.25
2023-01-27T08:07:07.356Z,15.55
2023-01-27T08:09:34.260Z,15.68
2023-01-27T08:12:21.557Z,14.23
2023-01-27T08:15:22.579Z,18.02
2023-01-27T08:18:03.233Z,18.00
2023-01-27T08:20:45.892Z,17.58
2023-01-27T08:23:26.607Z,16.02
2023-01-27T08:26:15.595Z,15.88
2023-01-27T08:28:56.265Z,16.13
2023-01-27T08:31:23.210Z,14.30
2023-01-27T08:33:53.302Z,16.60
2023-01-27T08:36:33.628Z,15.48
2023-01-27T08:39:34.614Z,14.47
2023-01-27T08:42:35.611Z,16.25
2023-01-27T08:45:08.645Z,15.02
2023-01-27T08:47:35.704Z,12.57
2023-01-27T08:50:22.607Z,16.73
2023-01-27T08:53:23.564Z,12.68
2023-01-27T08:56:07.544Z,12.85
2023-01-27T08:58:35.638Z,13.80
2023-01-27T09:01:08.059Z,11.40
2023-01-27T09:03:35.610Z,14.73
2023-01-27T09:06:07.065Z,12.07
2023-01-27T09:08:34.059Z,12.25
2023-01-27T09:11:00.886Z,12.65
2023-01-27T09:13:47.639Z,14.02
2023-01-27T09:16:48.661Z,14.05
2023-01-27T09:19:32.146Z,12.13
2023-01-27T09:22:12.631Z,12.23
2023-01-27T09:25:13.595Z,14.77
2023-01-27T09:27:55.665Z,14.32
2023-01-27T09:30:23.223Z,12.07
2023-01-27T09:32:50.262Z,12.38
2023-01-27T09:35:17.935Z,13.70
2023-01-27T09:37:55.425Z,12.43
2023-01-27T09:40:43.927Z,11.82
2023-01-27T09:43:37.294Z,13.15
2023-01-27T09:46:28.958Z,13.23
2023-01-27T09:49:20.311Z,12.82
2023-01-27T09:52:15.922Z,10.82
2023-01-27T09:55:08.924Z,11.50
2023-01-27T09:57:50.919Z,10.95
2023-01-27T10:00:40.936Z,12.10
2023-01-27T10:03:17.626Z,13.30
2023-01-27T10:05:56.823Z,10.60
2023-01-27T10:08:42.459Z,12.07
2023-01-27T10:11:43.712Z,9.55
2023-01-27T10:14:59.639Z,9.02
2023-01-27T10:17:55.488Z,9.93
2023-01-27T10:20:36.101Z,10.27
2023-01-27T10:23:20.191Z,9.35
2023-01-27T10:26:34.658Z,11.80
2023-01-27T10:29:39.774Z,10.05
2023-01-27T10:35:21.174Z,8.23
2023-01-27T10:38:14.656Z,11.45
2023-01-27T10:41:38.631Z,9.40
2023-01-27T10:44:52.111Z,8.05
2023-01-27T10:47:34.803Z,9.82
2023-01-27T10:50:28.668Z,9.38
2023-01-27T10:53:15.397Z,10.05
2023-01-27T10:56:25.675Z,13.00
2023-01-27T10:59:20.893Z,9.70
2023-01-27T11:01:55.594Z,10.02
2023-01-27T11:04:54.664Z,9.15
2023-01-27T11:07:54.386Z,11.73
2023-01-27T11:10:24.940Z,9.55
2023-01-27T11:13:14.665Z,9.77
2023-01-27T11:15:56.459Z,9.02
2023-01-27T11:18:28.957Z,17.65
2023-01-27T11:21:10.382Z,10.35
2023-01-27T11:23:43.421Z,8.27
2023-01-27T11:26:29.114Z,9.85
2023-01-27T11:29:29.228Z,20.55
2023-01-27T11:32:11.577Z,8.27
2023-01-27T11:35:12.674Z,8.65
2023-01-27T11:37:51.338Z,7.43
2023-01-27T11:40:29.124Z,10.18
2023-01-27T11:43:19.767Z,6.30
2023-01-27T11:46:36.266Z,8.00
2023-01-27T11:49:32.161Z,9.00
2023-01-27T11:52:12.019Z,8.23
2023-01-27T11:55:12.456Z,9.95
2023-01-27T11:57:51.528Z,7.50
2023-01-27T12:00:21.403Z,15.23
2023-01-27T12:03:42.773Z,11.07
2023-01-27T12:06:38.712Z,9.38
2023-01-27T12:09:55.632Z,9.38
2023-01-27T12:12:46.141Z,13.10
2023-01-27T12:15:29.416Z,7.20
2023-01-27T12:18:09.399Z,7.88
2023-01-27T12:20:45.859Z,7.78
2023-01-27T12:23:32.841Z,8.50
2023-01-27T12:26:08.399Z,10.45
2023-01-27T12:29:08.751Z,7.63
2023-01-27T12:31:53.152Z,7.45
2023-01-27T12:34:38.612Z,8.30
2023-01-27T12:37:23.042Z,6.78
2023-01-27T12:40:01.057Z,8.63
2023-01-27T12:43:04.261Z,11.50
2023-01-27T12:45:54.789Z,8.55
2023-01-27T12:49:02.954Z,8.90
2023-01-27T12:52:02.794Z,13.63
2023-01-27T12:54:40.494Z,15.20
2023-01-27T13:00:17.192Z,9.45
2023-01-27T13:03:05.991Z,11.52
2023-01-27T13:06:12.540Z,8.77
2023-01-27T13:09:02.912Z,9.75
2023-01-27T13:11:53.986Z,8.88
2023-01-27T13:14:56.890Z,7.95
2023-01-27T13:17:52.230Z,8.68
2023-01-27T13:20:45.172Z,9.15
2023-01-27T13:23:50.982Z,7.22
2023-01-27T13:26:40.931Z,9.32
2023-01-27T13:29:18.148Z,7.75
2023-01-27T13:32:36.361Z,7.80
2023-01-27T13:35:34.489Z,7.68
2023-01-27T13:38:20.914Z,7.70
2023-01-27T13:46:28.795Z,7.68
2023-01-27T13:49:43.774Z,7.75
2023-01-27T13:52:44.732Z,7.47
2023-01-27T13:55:56.333Z,7.90
2023-01-27T13:59:08.763Z,7.20
2023-01-27T14:02:16.773Z,6.68
2023-01-27T14:05:11.087Z,7.97
2023-01-27T14:08:15.530Z,7.47
2023-01-27T14:10:51.415Z,7.75
2023-01-27T14:14:03.773Z,9.73
2023-01-27T14:17:26.662Z,8.80
2023-01-27T14:20:15.472Z,8.80
2023-01-27T14:23:17.734Z,7.78
2023-01-27T14:26:12.049Z,7.80
2023-01-27T14:29:03.874Z,7.22
2023-01-27T14:31:44.701Z,8.15
2023-01-27T14:34:51.752Z,7.90
2023-01-27T14:37:54.186Z,7.82
2023-01-27T14:40:31.548Z,7.55
2023-01-27T14:43:36.590Z,7.78
2023-01-27T14:46:53.859Z,9.73
2023-01-27T14:50:00.769Z,7.32
2023-01-27T14:53:02.880Z,6.47
2023-01-27T14:55:51.516Z,8.82
2023-01-27T14:58:21.529Z,9.32
2023-01-27T15:01:18.786Z,9.15
2023-01-27T15:04:56.775Z,9.68
2023-01-27T15:08:00.372Z,9.15
2023-01-27T15:10:33.171Z,8.80
2023-01-27T15:13:19.797Z,8.68
2023-01-27T15:16:19.384Z,9.18
2023-01-27T15:19:24.817Z,8.85
2023-01-27T15:22:42.251Z,9.88
2023-01-27T15:25:29.913Z,8.98
2023-01-27T15:28:24.351Z,9.38
2023-01-27T15:34:37.816Z,10.02
2023-01-27T15:37:20.811Z,16.77
2023-01-27T15:40:23.697Z,19.80
2023-01-27T15:43:02.199Z,20.88
2023-01-27T15:45:52.898Z,13.50
2023-01-27T15:48:38.267Z,12.15
2023-01-27T15:51:11.997Z,15.57
2023-01-27T15:53:44.893Z,22.75
2023-01-27T15:56:11.986Z,12.50
2023-01-27T15:58:42.244Z,15.00
2023-01-27T16:01:43.863Z,15.10
2023-01-27T16:04:45.883Z,17.15
2023-01-27T16:07:50.872Z,14.10
2023-01-27T16:10:34.989Z,13.05
2023-01-27T16:13:43.962Z,15.98
2023-01-27T16:27:17.875Z,19.05
2023-01-27T16:29:57.378Z,25.42
2023-01-27T16:32:31.301Z,25.33
2023-01-27T16:35:37.046Z,21.77
2023-01-27T16:38:26.837Z,20.80
2023-01-27T16:41:40.898Z,17.10
2023-01-27T16:44:21.554Z,19.80
2023-01-27T16:46:56.837Z,14.77
2023-01-27T16:49:32.378Z,17.65
2023-01-27T16:54:44.517Z,18.75
2023-01-27T16:57:30.441Z,18.67
2023-01-27T17:00:00.784Z,16.90
2023-01-27T17:02:32.434Z,17.90
2023-01-27T17:05:29.979Z,22.45
2023-01-27T17:08:43.927Z,27.02
2023-01-27T17:12:44.826Z,20.63
2023-01-27T17:15:51.968Z,24.20
2023-01-27T17:18:54.859Z,26.33
2023-01-27T17:21:45.122Z,55.47
2023-01-27T17:24:21.393Z,35.75
2023-01-27T17:26:56.981Z,40.05
2023-01-27T17:29:31.143Z,27.80
2023-01-27T17:32:15.782Z,22.52
2023-01-27T17:35:05.985Z,24.58
2023-01-27T17:37:50.056Z,23.75
2023-01-27T17:40:22.550Z,27.73
2023-01-27T17:42:52.260Z,27.73
2023-01-27T17:45:34.442Z,24.58
2023-01-27T17:48:02.182Z,31.60
2023-01-27T17:50:51.068Z,28.55
2023-01-27T17:53:32.822Z,31.85
2023-01-27T17:56:54.277Z,33.97
2023-01-27T18:00:11.854Z,25.65
2023-01-27T18:03:14.434Z,34.08
2023-01-27T18:06:01.715Z,27.27
2023-01-27T18:08:55.359Z,25.88
2023-01-27T18:12:18.730Z,28.52
2023-01-27T18:15:45.115Z,33.53
2023-01-27T18:18:35.065Z,44.53
2023-01-27T18:21:09.074Z,30.55
2023-01-27T18:24:10.842Z,24.90
2023-01-27T18:26:54.593Z,23.52
2023-01-27T18:29:37.786Z,27.92
2023-01-27T18:32:13.849Z,33.83
2023-01-27T18:34:57.627Z,36.20
2023-01-27T18:37:44.956Z,32.22
2023-01-27T18:40:42.535Z,29.17
2023-01-27T18:43:15.664Z,28.02
2023-01-27T18:45:47.523Z,35.17
2023-01-27T18:48:20.565Z,40.33
2023-01-27T18:50:56.256Z,46.08
2023-01-27T18:53:53.958Z,46.83
2023-01-27T18:56:35.346Z,30.45
2023-01-27T18:59:03.707Z,34.05
2023-01-27T19:01:31.441Z,32.65
2023-01-27T19:04:38.601Z,31.23
2023-01-27T19:07:40.465Z,31.35
2023-01-27T19:10:51.007Z,30.25
2023-01-27T19:18:26.273Z,33.92
2023-01-27T19:21:08.540Z,35.90
2023-01-27T19:23:46.575Z,47.22
2023-01-27T19:26:45.444Z,40.10
2023-01-27T19:29:57.112Z,29.67
2023-01-27T19:32:47.183Z,41.63
2023-01-27T19:35:18.608Z,43.25
2023-01-27T19:37:57.892Z,44.90
2023-01-27T19:40:29.265Z,40.15
2023-01-27T19:42:59.771Z,40.90
2023-01-27T19:45:30.304Z,50.33
2023-01-27T19:47:59.995Z,50.65
2023-01-27T19:50:30.453Z,42.08
2023-01-27T19:53:02.997Z,36.75
2023-01-27T19:55:54.285Z,34.63
2023-01-27T19:58:58.320Z,32.72
2023-01-27T20:02:00.184Z,36.50
2023-01-27T20:04:41.219Z,31.15
2023-01-27T20:07:31.453Z,31.75
2023-01-27T20:10:22.342Z,30.77
2023-01-27T20:13:17.681Z,34.30
2023-01-27T20:16:18.126Z,37.20
2023-01-27T20:19:10.211Z,34.40
2023-01-27T20:21:41.375Z,32.30
2023-01-27T20:24:16.311Z,36.45
2023-01-27T20:27:17.277Z,32.47
2023-01-27T20:30:22.155Z,30.45
2023-01-27T20:33:27.208Z,30.15
2023-01-27T20:39:04.052Z,24.50
2023-01-27T20:41:31.977Z,24.35
2023-01-27T20:44:04.666Z,21.02
2023-01-27T20:46:57.188Z,23.77
2023-01-27T20:49:38.103Z,20.30
2023-01-27T20:52:12.501Z,25.20
2023-01-27T20:55:16.560Z,24.23
2023-01-27T20:58:03.195Z,19.83
2023-01-27T21:00:58.212Z,20.92
2023-01-27T21:04:15.115Z,22.88
2023-01-27T21:07:16.127Z,20.02
2023-01-27T21:10:18.062Z,27.90
2023-01-27T21:13:19.112Z,28.52
2023-01-27T21:16:22.228Z,28.52
2023-01-27T21:19:22.552Z,24.98
2023-01-27T21:22:01.594Z,26.85
2023-01-27T21:24:52.286Z,30.40
2023-01-27T21:30:37.128Z,26.08
2023-01-27T21:33:38.043Z,23.83
2023-01-27T21:36:21.709Z,27.85
2023-01-27T21:38:53.963Z,24.40
2023-01-27T21:41:43.123Z,27.08
2023-01-27T21:44:42.882Z,24.70
2023-01-27T21:47:32.102Z,23.80
2023-01-27T21:50:15.084Z,23.55
2023-01-27T21:53:06.160Z,23.77
2023-01-27T21:57:23.737Z,24.27
2023-01-27T22:00:20.104Z,20.10
2023-01-27T22:03:21.044Z,23.13
2023-01-27T22:06:06.941Z,25.48
2023-01-27T22:08:54.057Z,24.77
2023-01-27T22:11:55.090Z,24.33
2023-01-27T22:14:57.065Z,22.02
2023-01-27T22:17:37.744Z,23.02
2023-01-27T22:20:29.082Z,20.13
2023-01-27T22:23:31.165Z,20.17
2023-01-27T22:26:32.490Z,21.42
2023-01-27T22:29:33.237Z,20.85
2023-01-27T22:32:14.005Z,19.15
2023-01-27T22:34:48.029Z,25.95
2023-01-27T22:37:15.888Z,24.30
2023-01-27T22:39:43.847Z,29.40
2023-01-27T22:42:11.798Z,27.73
2023-01-27T22:44:45.811Z,26.90
2023-01-27T22:47:13.776Z,23.88
2023-01-27T22:49:41.386Z,21.75
2023-01-27T22:52:08.980Z,19.48
2023-01-27T22:54:58.160Z,20.60
2023-01-27T22:57:50.719Z,23.70
2023-01-27T23:00:21.536Z,24.75
2023-01-27T23:03:09.274Z,21.85
2023-01-27T23:06:10.442Z,20.60
2023-01-27T23:08:56.735Z,20.45
2023-01-27T23:11:46.518Z,22.23
2023-01-27T23:14:48.172Z,25.58
2023-01-27T23:17:49.220Z,19.42
2023-01-27T23:20:30.162Z,22.88
2023-01-27T23:23:17.215Z,21.88
2023-01-27T23:26:15.433Z,21.30
2023-01-27T23:29:24.127Z,20.58
2023-01-27T23:32:06.643Z,19.80
2023-01-27T23:34:34.330Z,22.75
2023-01-27T23:37:02.212Z,23.88
2023-01-27T23:39:32.812Z,23.88
2023-01-27T23:42:03.491Z,23.48
2023-01-27T23:44:31.105Z,24.40
2023-01-27T23:46:58.579Z,25.38
2023-01-27T23:49:26.583Z,24.85
2023-01-27T23:51:54.445Z,21.23
2023-01-27T23:54:42.219Z,23.33
2023-01-27T23:57:28.141Z,20.92
2023-01-27T23:59:55.867Z,19.80
